Startpagina
METAR-TAF:

METAR-TAF

Vliegvelden :

Curaçao International Airport

Curaçao, Nederlandse Antillen

breedte: 12-12N, lengte: 068-58W, hoogte: 9 m

Actueel weer

Dit bericht is 53 minuten geleden gemaakt, om 07:00 UTC
Wind 3 kt uit het zuidoosten
Temperatuur 27°C
Vochtigheid 79%
Druk 1010 hPa
Zicht 10 km of meer
Weinig wolken op 1800 ft

METAR: TNCC 210700Z 14003KT 9999 FEW018 27/23 Q1010 NOSIG

Tijdstip: 03:53 (07:53 UTC)

Verwachting

Dit bericht is 2 uur en het 38 minuten geleden gemaakt, om 05:15 UTC
Verwachting geldig van 21 om 06 UTC tot 22 om 06 UTC
Wind 8 kt uit het oosten
Zicht 10 km of meer
Verspreide wolken op 2000 ft
Kans 40% :
Tijdelijke
van 21 om 06 UTC tot 21 om 20 UTC
Wind 5 kt uit variabele richting met uitschieters tot 20 kt
Zicht: 5000 m
Gebroken wolken op 1500 ft
regenbuien

TAF: TNCC 210515Z 2106/2206 08008KT 9999 SCT020 PROB40 TEMPO 2106/2120 VRB05G20KT 5000 SHRA BKN015

Waarnemingen en weersverwachtingen van meer dan 4000 vliegvelden (METAR en TAF).

De beschikbare stations zijn de gele en rode punten op de kaart.

Ga met uw muis naar het station om de naam te zien.

Klik dan om waarnemingen en weersverwachtingen te zien.

kaart wijzigen: klik op de groene knoppen met een zwart kruis om in te zoomen, op de groene knop met een streepje om uit te zoomen of op de groene pijlen voor aangrenzende kaarten.


METAR-TAF: